航空気象通報

ウインドサーファーのための航空気象通報による風予報です。

4/20-21の航空気象通報(国内、海外)

2008年04月20日 21時35分23秒 | TAF
羽田空港
TAF RJTT 200850Z 201812 01016KT 9999 FEW030 SCT060
BECMG 0003 09012KT
日本時間21日03-09時:010度から16ノットの風
09-12時:風が変化
12-21時:090度から12ノットの風


那覇空港
TAF ROAH 200841Z 201812 12010KT 9999 FEW030
日本時間21日03-21時:120度から10ノットの風


マウイのカフルイ空港
PHOG 201131Z 201212 04010KT P6SM SCT050
FM2100 05012G20KT P6SM SCT050
FM2300 05020G28KT P6SM SCT050
FM0400 05012G20KT P6SM SCT050
FM0600 04010KT P6SM SCT050
ハワイ時間20日02-11時:040度から10ノットの風
11-13時:050度から12ノット、突風20ノット
13-18時:050度から20ノット、突風28ノット
18-20時:050度から12ノット、突風20ノット
21時-21日02時:040度から10ノットの風


サイパン空港
PGSN 201140Z 201212 09011KT P6SM FEW020
FM2200 10014KT P6SM VCSH SCT025
マリアナ時間20日22時-21日08時:090度から11ノットの風
08-22時:100度から14ノットの風

コメント